createdAt,value
2023-10-28T00:01:07.546Z,23.10
2023-10-28T00:03:34.644Z,23.10
2023-10-28T00:06:02.589Z,23.00
2023-10-28T00:08:29.697Z,23.00
2023-10-28T00:10:56.927Z,22.90
2023-10-28T00:13:24.559Z,22.90
2023-10-28T00:15:51.594Z,23.10
2023-10-28T00:18:18.699Z,23.00
2023-10-28T00:20:46.641Z,22.90
2023-10-28T00:23:15.552Z,22.90
2023-10-28T00:25:43.772Z,22.90
2023-10-28T00:28:10.949Z,23.00
2023-10-28T00:30:41.569Z,22.90
2023-10-28T00:33:08.662Z,22.90
2023-10-28T00:35:35.871Z,22.90
2023-10-28T00:38:03.202Z,23.50
2023-10-28T00:40:31.366Z,22.90
2023-10-28T00:43:00.513Z,22.80
2023-10-28T00:45:28.860Z,22.90
2023-10-28T00:47:57.814Z,22.80
2023-10-28T00:50:24.958Z,22.70
2023-10-28T00:52:55.415Z,22.80
2023-10-28T00:55:24.491Z,22.80
2023-10-28T00:57:52.846Z,22.90
2023-10-28T01:00:22.331Z,23.00
2023-10-28T01:02:49.994Z,22.90
2023-10-28T01:05:17.848Z,22.90
2023-10-28T01:07:50.517Z,23.00
2023-10-28T01:10:28.768Z,23.00
2023-10-28T01:12:56.154Z,22.90
2023-10-28T01:15:24.252Z,23.00
2023-10-28T01:17:51.688Z,23.60
2023-10-28T01:20:18.750Z,22.90
2023-10-28T01:22:45.668Z,22.90
2023-10-28T01:25:15.603Z,22.80
2023-10-28T01:27:44.805Z,22.90
2023-10-28T01:30:15.515Z,22.90
2023-10-28T01:32:44.000Z,23.00
2023-10-28T01:35:12.184Z,22.90
2023-10-28T01:37:39.230Z,22.90
2023-10-28T01:40:16.486Z,22.90
2023-10-28T01:42:47.010Z,22.90
2023-10-28T01:45:15.943Z,22.80
2023-10-28T01:47:44.132Z,22.90
2023-10-28T01:50:15.235Z,23.00
2023-10-28T01:52:44.763Z,23.00
2023-10-28T01:55:13.125Z,23.00
2023-10-28T01:57:41.177Z,22.80
2023-10-28T02:00:14.057Z,22.80
2023-10-28T02:02:43.218Z,22.80
2023-10-28T02:05:10.803Z,22.80
2023-10-28T02:07:38.742Z,23.40
2023-10-28T02:10:09.097Z,22.80
2023-10-28T02:12:36.244Z,22.80
2023-10-28T02:15:08.355Z,22.70
2023-10-28T02:17:36.971Z,22.80
2023-10-28T02:20:05.387Z,22.70
2023-10-28T02:22:33.111Z,22.80
2023-10-28T02:25:00.114Z,22.90
2023-10-28T02:27:27.054Z,23.00
2023-10-28T02:29:54.439Z,23.00
2023-10-28T02:32:21.499Z,22.90
2023-10-28T02:34:48.607Z,22.90
2023-10-28T02:37:15.717Z,23.00
2023-10-28T02:39:43.334Z,23.00
2023-10-28T02:42:10.259Z,22.90
2023-10-28T02:44:38.054Z,23.10
2023-10-28T02:47:05.509Z,23.20
2023-10-28T02:49:32.657Z,23.30
2023-10-28T02:51:59.623Z,23.30
2023-10-28T02:54:26.501Z,23.40
2023-10-28T02:56:53.736Z,23.40
2023-10-28T02:59:21.337Z,23.30
2023-10-28T03:01:48.319Z,23.20
2023-10-28T03:04:15.296Z,23.10
2023-10-28T03:06:42.238Z,23.00
2023-10-28T03:09:09.221Z,22.90
2023-10-28T03:11:36.373Z,22.90
2023-10-28T03:14:03.254Z,22.90
2023-10-28T03:16:30.250Z,22.80
2023-10-28T03:18:57.696Z,22.80
2023-10-28T03:21:25.301Z,22.80
2023-10-28T03:23:52.361Z,22.80
2023-10-28T03:26:19.475Z,22.70
2023-10-28T03:28:47.306Z,22.70
2023-10-28T03:31:14.380Z,22.70
2023-10-28T03:33:42.204Z,22.70
2023-10-28T03:36:12.731Z,22.70
2023-10-28T03:38:40.254Z,22.70
2023-10-28T03:41:11.296Z,23.20
2023-10-28T03:43:38.660Z,22.60
2023-10-28T03:46:05.845Z,22.70
2023-10-28T03:48:33.358Z,22.80
2023-10-28T03:51:05.552Z,22.70
2023-10-28T03:53:32.665Z,22.70
2023-10-28T03:55:59.777Z,22.80
2023-10-28T03:58:26.891Z,22.80
2023-10-28T04:00:55.103Z,22.80
2023-10-28T04:03:23.220Z,22.80
2023-10-28T04:05:51.027Z,22.80
2023-10-28T04:08:18.261Z,22.80
2023-10-28T04:10:45.402Z,22.70
2023-10-28T04:13:15.611Z,22.70
2023-10-28T04:15:42.938Z,22.70
2023-10-28T04:18:10.180Z,22.70
2023-10-28T04:20:39.002Z,22.70
2023-10-28T04:23:07.465Z,22.70
2023-10-28T04:25:35.089Z,22.70
2023-10-28T04:28:02.126Z,22.70
2023-10-28T04:30:29.184Z,22.70
2023-10-28T04:32:56.333Z,22.80
2023-10-28T04:35:28.557Z,22.80
2023-10-28T04:37:59.276Z,22.80
2023-10-28T04:40:26.521Z,22.70
2023-10-28T04:42:54.311Z,22.80
2023-10-28T04:45:23.147Z,22.80
2023-10-28T04:47:51.720Z,22.80
2023-10-28T04:50:18.972Z,22.80
2023-10-28T04:52:46.149Z,22.80
2023-10-28T04:55:14.388Z,22.80
2023-10-28T04:57:42.816Z,22.80
2023-10-28T05:00:10.727Z,22.80
2023-10-28T05:02:37.763Z,22.80
2023-10-28T05:05:05.172Z,22.80
2023-10-28T05:07:32.904Z,22.80
2023-10-28T05:10:00.162Z,22.80
2023-10-28T05:12:27.271Z,22.80
2023-10-28T05:14:54.597Z,22.80
2023-10-28T05:17:22.253Z,22.80
2023-10-28T05:19:49.415Z,22.80
2023-10-28T05:22:18.551Z,22.80
2023-10-28T05:24:48.158Z,22.80
2023-10-28T05:27:15.185Z,22.70
2023-10-28T05:29:42.130Z,22.80
2023-10-28T05:32:10.289Z,22.80
2023-10-28T05:34:37.382Z,22.80
2023-10-28T05:37:04.468Z,22.80
2023-10-28T05:39:31.569Z,22.80
2023-10-28T05:41:58.502Z,22.80
2023-10-28T05:44:25.398Z,22.80
2023-10-28T05:46:52.388Z,22.80
2023-10-28T05:49:19.303Z,22.90
2023-10-28T05:51:46.235Z,22.90
2023-10-28T05:54:13.368Z,22.90
2023-10-28T05:56:40.311Z,22.80
2023-10-28T05:59:09.895Z,22.80
2023-10-28T06:01:38.046Z,22.80
2023-10-28T06:04:05.655Z,22.80
2023-10-28T06:06:32.658Z,22.80
2023-10-28T06:08:59.815Z,22.80
2023-10-28T06:11:27.639Z,22.80
2023-10-28T06:13:54.867Z,22.70
2023-10-28T06:16:22.153Z,22.70
2023-10-28T06:18:49.477Z,22.70
2023-10-28T06:21:16.460Z,22.70
2023-10-28T06:23:43.506Z,22.70
2023-10-28T06:26:11.611Z,22.80
2023-10-28T06:28:38.991Z,22.80
2023-10-28T06:31:06.150Z,22.80
2023-10-28T06:33:33.977Z,22.70
2023-10-28T06:36:00.945Z,22.80
2023-10-28T06:38:29.505Z,22.70
2023-10-28T06:40:58.315Z,22.80
2023-10-28T06:43:25.321Z,22.70
2023-10-28T06:45:52.259Z,22.70
2023-10-28T06:48:19.345Z,22.70
2023-10-28T06:50:46.487Z,22.70
2023-10-28T06:53:13.464Z,22.80
2023-10-28T06:55:40.523Z,22.80
2023-10-28T06:58:07.435Z,22.80
2023-10-28T07:00:34.339Z,22.60
2023-10-28T07:03:01.483Z,22.50
2023-10-28T07:05:28.521Z,22.60
2023-10-28T07:07:55.906Z,23.30
2023-10-28T07:10:23.596Z,22.30
2023-10-28T07:12:53.632Z,22.60
2023-10-28T07:15:20.566Z,22.50
2023-10-28T07:17:47.665Z,22.70
2023-10-28T07:20:15.173Z,22.60
2023-10-28T07:22:42.957Z,22.60
2023-10-28T07:25:11.300Z,22.50
2023-10-28T07:27:38.792Z,22.40
2023-10-28T07:30:06.653Z,22.30
2023-10-28T07:32:33.934Z,22.10
2023-10-28T07:35:00.967Z,22.60
2023-10-28T07:37:28.007Z,22.10
2023-10-28T07:39:55.172Z,22.10
2023-10-28T07:42:24.404Z,22.10
2023-10-28T07:44:52.617Z,22.00
2023-10-28T07:47:19.909Z,22.20
2023-10-28T07:49:47.273Z,22.20
2023-10-28T07:52:14.391Z,22.40
2023-10-28T07:54:41.493Z,22.30
2023-10-28T07:57:09.367Z,22.10
2023-10-28T07:59:42.687Z,22.00
2023-10-28T08:02:10.069Z,22.00
2023-10-28T08:04:37.773Z,22.30
2023-10-28T08:07:05.154Z,22.50
2023-10-28T08:09:32.288Z,23.00
2023-10-28T08:11:59.639Z,22.40
2023-10-28T08:14:27.396Z,23.20
2023-10-28T08:16:55.056Z,22.70
2023-10-28T08:19:25.292Z,22.60
2023-10-28T08:21:52.197Z,23.50
2023-10-28T08:24:22.249Z,22.60
2023-10-28T08:26:49.706Z,23.30
2023-10-28T08:29:16.687Z,22.60
2023-10-28T08:31:43.917Z,22.00
2023-10-28T08:34:11.228Z,22.70
2023-10-28T08:36:38.214Z,23.20
2023-10-28T08:39:06.647Z,22.80
2023-10-28T08:41:33.688Z,22.30
2023-10-28T08:44:01.565Z,22.20
2023-10-28T08:46:30.196Z,22.20
2023-10-28T08:49:00.087Z,22.40
2023-10-28T08:51:28.157Z,21.60
2023-10-28T08:53:58.385Z,21.40
2023-10-28T08:56:26.912Z,21.30
2023-10-28T08:58:54.201Z,21.00
2023-10-28T09:01:24.351Z,21.00
2023-10-28T09:04:02.762Z,21.10
2023-10-28T09:06:29.965Z,21.70
2023-10-28T09:08:58.753Z,21.30
2023-10-28T09:11:26.997Z,21.10
2023-10-28T09:13:54.164Z,20.90
2023-10-28T09:16:24.198Z,20.60
2023-10-28T09:18:52.177Z,21.60
2023-10-28T09:21:20.020Z,21.10
2023-10-28T09:23:47.054Z,21.70
2023-10-28T09:26:14.124Z,21.50
2023-10-28T09:28:47.496Z,21.10
2023-10-28T09:31:24.597Z,21.20
2023-10-28T09:33:53.785Z,21.40
2023-10-28T09:36:21.831Z,22.20
2023-10-28T09:38:49.061Z,21.60
2023-10-28T09:41:17.662Z,21.20
2023-10-28T09:43:46.278Z,20.60
2023-10-28T09:46:18.500Z,20.40
2023-10-28T09:48:49.473Z,20.50
2023-10-28T09:51:21.990Z,20.40
2023-10-28T09:53:55.151Z,20.60
2023-10-28T09:56:24.200Z,19.60
2023-10-28T09:59:01.595Z,20.60
2023-10-28T10:01:56.686Z,20.10
2023-10-28T10:04:40.917Z,20.00
2023-10-28T10:07:08.246Z,18.50
2023-10-28T10:09:46.559Z,18.90
2023-10-28T10:12:13.771Z,19.40
2023-10-28T10:14:52.180Z,18.80
2023-10-28T10:17:32.903Z,18.30
2023-10-28T10:20:06.420Z,18.70
2023-10-28T10:22:36.345Z,18.70
2023-10-28T10:25:03.487Z,19.00
2023-10-28T10:27:46.834Z,18.60
2023-10-28T10:30:14.472Z,18.60
2023-10-28T10:32:51.924Z,19.20
2023-10-28T10:35:50.499Z,18.80
2023-10-28T10:38:17.902Z,19.50
2023-10-28T10:40:47.829Z,19.30
2023-10-28T10:43:20.402Z,19.90
2023-10-28T10:45:51.482Z,20.00
2023-10-28T10:48:19.275Z,20.00
2023-10-28T10:50:47.706Z,20.00
2023-10-28T10:53:14.766Z,19.70
2023-10-28T10:55:41.819Z,19.10
2023-10-28T10:58:09.036Z,18.60
2023-10-28T11:00:36.251Z,17.80
2023-10-28T11:03:05.176Z,18.10
2023-10-28T11:05:32.813Z,17.30
2023-10-28T11:08:05.533Z,17.10
2023-10-28T11:10:32.796Z,18.00
2023-10-28T11:12:59.848Z,17.70
2023-10-28T11:15:26.776Z,17.00
2023-10-28T11:17:54.306Z,18.40
2023-10-28T11:20:24.403Z,18.60
2023-10-28T11:22:52.668Z,18.40
2023-10-28T11:25:21.618Z,18.10
2023-10-28T11:27:53.271Z,18.30
2023-10-28T11:30:20.461Z,18.90
2023-10-28T11:32:47.720Z,19.20
2023-10-28T11:35:15.406Z,19.10
2023-10-28T11:37:42.392Z,18.90
2023-10-28T11:40:10.980Z,19.40
2023-10-28T11:42:40.615Z,19.00
2023-10-28T11:45:09.254Z,19.60
2023-10-28T11:47:36.400Z,19.70
2023-10-28T11:50:04.408Z,19.50
2023-10-28T11:52:32.818Z,19.40
2023-10-28T11:55:00.913Z,18.70
2023-10-28T11:57:27.895Z,18.90
2023-10-28T11:59:55.007Z,18.90
2023-10-28T12:02:21.998Z,19.60
2023-10-28T12:04:48.938Z,19.30
2023-10-28T12:07:15.965Z,19.80
2023-10-28T12:09:43.037Z,19.90
2023-10-28T12:12:10.583Z,20.00
2023-10-28T12:14:37.910Z,19.90
2023-10-28T12:17:05.762Z,20.30
2023-10-28T12:19:33.923Z,20.40
2023-10-28T12:22:01.001Z,21.40
2023-10-28T12:24:27.962Z,21.80
2023-10-28T12:26:57.337Z,21.20
2023-10-28T12:29:24.250Z,21.30
2023-10-28T12:31:52.680Z,21.40
2023-10-28T12:34:20.338Z,21.70
2023-10-28T12:36:48.928Z,20.90
2023-10-28T12:39:19.350Z,21.40
2023-10-28T12:41:47.131Z,20.90
2023-10-28T12:44:14.071Z,21.50
2023-10-28T12:46:41.039Z,21.10
2023-10-28T12:49:08.203Z,21.30
2023-10-28T12:51:35.661Z,21.10
2023-10-28T12:54:02.947Z,21.40
2023-10-28T12:56:30.045Z,21.60
2023-10-28T12:58:57.451Z,21.40
2023-10-28T13:01:28.328Z,21.60
2023-10-28T13:03:57.986Z,21.70
2023-10-28T13:06:25.593Z,21.50
2023-10-28T13:08:52.779Z,21.00
2023-10-28T13:11:19.827Z,21.40
2023-10-28T13:13:47.070Z,21.30
2023-10-28T13:16:14.334Z,20.90
2023-10-28T13:18:41.416Z,21.10
2023-10-28T13:21:08.297Z,21.20
2023-10-28T13:23:35.247Z,20.80
2023-10-28T13:26:02.384Z,20.70
2023-10-28T13:28:29.659Z,20.60
2023-10-28T13:30:56.584Z,20.60
2023-10-28T13:33:33.367Z,20.60
2023-10-28T13:36:00.499Z,21.00
2023-10-28T13:38:27.372Z,21.80
2023-10-28T13:40:54.984Z,22.40
2023-10-28T13:43:22.062Z,22.70
2023-10-28T13:45:49.110Z,21.40
2023-10-28T13:48:17.579Z,22.10
2023-10-28T13:50:44.783Z,21.50
2023-10-28T13:53:11.742Z,21.40
2023-10-28T13:55:39.041Z,21.30
2023-10-28T13:58:06.137Z,21.20
2023-10-28T14:00:34.288Z,21.30
2023-10-28T14:03:03.368Z,21.00
2023-10-28T14:05:30.490Z,21.10
2023-10-28T14:07:58.911Z,20.80
2023-10-28T14:10:26.827Z,20.80
2023-10-28T14:12:53.929Z,20.70
2023-10-28T14:15:20.883Z,20.90
2023-10-28T14:17:48.264Z,21.10
2023-10-28T14:20:15.510Z,20.90
2023-10-28T14:22:42.637Z,20.70
2023-10-28T14:25:09.948Z,21.00
2023-10-28T14:27:37.532Z,20.90
2023-10-28T14:30:08.303Z,21.10
2023-10-28T14:32:38.104Z,21.90
2023-10-28T14:35:06.824Z,22.40
2023-10-28T14:37:33.910Z,22.10
2023-10-28T14:40:00.967Z,22.20
2023-10-28T14:42:27.882Z,21.70
2023-10-28T14:44:54.794Z,21.50
2023-10-28T14:47:21.995Z,21.10
2023-10-28T14:49:49.136Z,21.30
2023-10-28T14:52:16.311Z,21.30
2023-10-28T14:54:43.440Z,21.10
2023-10-28T14:57:12.714Z,21.20
2023-10-28T14:59:48.387Z,21.70
2023-10-28T15:02:18.612Z,21.70
2023-10-28T15:04:48.987Z,21.90
2023-10-28T15:07:17.049Z,21.70
2023-10-28T15:09:48.691Z,21.60
2023-10-28T15:12:16.661Z,21.90
2023-10-28T15:14:43.684Z,22.00
2023-10-28T15:17:11.261Z,22.00
2023-10-28T15:19:38.664Z,22.00
2023-10-28T15:22:05.804Z,22.10
2023-10-28T15:24:32.964Z,21.90
2023-10-28T15:27:00.005Z,21.80
2023-10-28T15:29:27.140Z,21.80
2023-10-28T15:31:54.672Z,22.10
2023-10-28T15:34:21.920Z,22.20
2023-10-28T15:36:49.002Z,22.20
2023-10-28T15:39:16.188Z,22.00
2023-10-28T15:41:44.600Z,21.90
2023-10-28T15:44:11.649Z,22.00
2023-10-28T15:46:38.780Z,22.00
2023-10-28T15:49:06.622Z,21.80
2023-10-28T15:51:33.600Z,22.00
2023-10-28T15:54:01.921Z,21.90
2023-10-28T15:56:30.380Z,21.90
2023-10-28T15:58:58.416Z,21.90
2023-10-28T16:01:25.444Z,21.90
2023-10-28T16:03:56.469Z,21.90
2023-10-28T16:06:23.316Z,21.90
2023-10-28T16:08:50.530Z,22.00
2023-10-28T16:11:27.528Z,22.10
2023-10-28T16:14:00.980Z,22.40
2023-10-28T16:16:30.081Z,22.20
2023-10-28T16:19:00.305Z,22.20
2023-10-28T16:21:27.953Z,22.60
2023-10-28T16:23:55.000Z,22.50
2023-10-28T16:26:24.090Z,22.30
2023-10-28T16:28:51.083Z,22.30
2023-10-28T16:31:26.668Z,22.90
2023-10-28T16:33:53.795Z,23.20
2023-10-28T16:36:20.974Z,22.90
2023-10-28T16:38:48.191Z,22.70
2023-10-28T16:41:15.298Z,22.70
2023-10-28T16:43:42.445Z,23.30
2023-10-28T16:46:11.932Z,23.70
2023-10-28T16:48:38.990Z,23.60
2023-10-28T16:51:13.683Z,23.30
2023-10-28T16:53:41.223Z,22.80
2023-10-28T16:56:08.782Z,23.00
2023-10-28T16:58:37.011Z,23.20
2023-10-28T17:01:05.261Z,22.90
2023-10-28T17:03:34.208Z,23.30
2023-10-28T17:06:07.046Z,23.10
2023-10-28T17:08:34.828Z,23.30
2023-10-28T17:11:04.078Z,23.10
2023-10-28T17:13:35.587Z,23.10
2023-10-28T17:16:09.417Z,23.00
2023-10-28T17:18:41.315Z,23.30
2023-10-28T17:21:09.923Z,23.60
2023-10-28T17:23:37.268Z,23.80
2023-10-28T17:26:06.568Z,23.70
2023-10-28T17:28:34.817Z,23.40
2023-10-28T17:31:04.764Z,23.20
2023-10-28T17:33:35.336Z,23.10
2023-10-28T17:36:03.300Z,22.80
2023-10-28T17:38:35.161Z,23.50
2023-10-28T17:41:10.047Z,23.60
2023-10-28T17:43:40.190Z,23.30
2023-10-28T17:46:10.298Z,23.00
2023-10-28T17:51:24.792Z,22.60
2023-10-28T17:53:56.938Z,22.50
2023-10-28T17:56:37.155Z,22.50
2023-10-28T17:59:09.844Z,22.60
2023-10-28T18:01:43.130Z,22.90
2023-10-28T18:04:13.884Z,22.50
2023-10-28T18:06:56.840Z,22.40
2023-10-28T18:09:32.997Z,22.40
2023-10-28T18:12:13.488Z,22.40
2023-10-28T18:14:42.293Z,22.30
2023-10-28T18:17:18.607Z,22.30
2023-10-28T18:20:33.577Z,22.20
2023-10-28T18:22:42.072Z,22.20
2023-10-28T18:25:09.742Z,22.90
2023-10-28T18:28:02.010Z,22.60
2023-10-28T18:30:29.816Z,22.80
2023-10-28T18:32:57.000Z,22.70
2023-10-28T18:35:26.548Z,22.90
2023-10-28T18:37:54.005Z,22.80
2023-10-28T18:40:21.046Z,22.70
2023-10-28T18:42:48.263Z,23.00
2023-10-28T18:45:16.430Z,22.80
2023-10-28T18:47:43.644Z,22.60
2023-10-28T18:50:11.927Z,23.00
2023-10-28T18:52:45.334Z,23.00
2023-10-28T18:55:12.491Z,23.10
2023-10-28T18:57:39.768Z,23.10
2023-10-28T19:00:10.252Z,22.90
2023-10-28T19:02:37.879Z,22.80
2023-10-28T19:05:16.092Z,23.30
2023-10-28T19:07:43.286Z,22.70
2023-10-28T19:10:10.698Z,22.80
2023-10-28T19:12:38.840Z,23.00
2023-10-28T19:15:10.241Z,23.50
2023-10-28T19:17:37.833Z,22.80
2023-10-28T19:20:05.694Z,22.90
2023-10-28T19:22:35.765Z,22.80
2023-10-28T19:25:03.322Z,22.80
2023-10-28T19:27:33.114Z,22.90
2023-10-28T19:30:05.687Z,22.80
2023-10-28T19:32:34.254Z,23.10
2023-10-28T19:35:02.952Z,22.90
2023-10-28T19:37:30.046Z,23.00
2023-10-28T19:39:57.905Z,23.00
2023-10-28T19:42:28.638Z,23.00
2023-10-28T19:44:56.928Z,23.20
2023-10-28T19:47:27.923Z,22.80
2023-10-28T19:49:55.413Z,23.30
2023-10-28T19:52:27.069Z,23.10
2023-10-28T19:54:54.451Z,23.20
2023-10-28T19:57:21.648Z,23.30
2023-10-28T19:59:51.053Z,23.20
2023-10-28T20:02:19.430Z,24.00
2023-10-28T20:04:47.042Z,23.80
2023-10-28T20:07:14.278Z,24.10
2023-10-28T20:09:41.573Z,24.10
2023-10-28T20:12:10.768Z,24.20
2023-10-28T20:14:38.225Z,24.10
2023-10-28T20:17:05.928Z,24.20
2023-10-28T20:19:33.040Z,23.60
2023-10-28T20:22:00.147Z,24.30
2023-10-28T20:24:27.272Z,24.20
2023-10-28T20:26:55.290Z,24.10
2023-10-28T20:29:22.481Z,24.80
2023-10-28T20:31:50.074Z,24.90
2023-10-28T20:34:21.011Z,25.70
2023-10-28T20:36:48.112Z,26.20
2023-10-28T20:39:17.285Z,26.20
2023-10-28T20:41:44.365Z,25.40
2023-10-28T20:44:11.473Z,25.00
2023-10-28T20:46:38.576Z,24.90
2023-10-28T20:49:08.696Z,25.20
2023-10-28T20:51:38.287Z,26.10
2023-10-28T20:54:05.401Z,26.50
2023-10-28T20:56:35.646Z,26.30
2023-10-28T20:59:05.604Z,26.40
2023-10-28T21:01:32.639Z,26.10
2023-10-28T21:03:59.695Z,26.70
2023-10-28T21:06:27.616Z,26.90
2023-10-28T21:08:56.034Z,26.50
2023-10-28T21:11:23.246Z,27.80
2023-10-28T21:13:50.698Z,26.90
2023-10-28T21:16:17.711Z,28.20
2023-10-28T21:18:45.432Z,27.90
2023-10-28T21:21:12.453Z,27.00
2023-10-28T21:23:40.532Z,26.30
2023-10-28T21:26:09.055Z,26.40
2023-10-28T21:28:36.093Z,26.30
2023-10-28T21:31:04.908Z,26.40
2023-10-28T21:33:38.060Z,26.00
2023-10-28T21:36:06.453Z,25.90
2023-10-28T21:38:33.498Z,25.90
2023-10-28T21:41:01.120Z,26.40
2023-10-28T21:43:28.337Z,26.20
2023-10-28T21:46:00.583Z,26.10
2023-10-28T21:48:28.516Z,26.30
2023-10-28T21:50:56.252Z,26.10
2023-10-28T21:53:24.461Z,25.90
2023-10-28T21:55:51.659Z,25.60
2023-10-28T21:58:19.500Z,25.10
2023-10-28T22:00:49.035Z,25.00
2023-10-28T22:03:19.927Z,25.10
2023-10-28T22:05:47.196Z,25.00
2023-10-28T22:08:20.400Z,24.90
2023-10-28T22:10:49.605Z,24.60
2023-10-28T22:13:17.124Z,25.30
2023-10-28T22:15:44.278Z,24.90
2023-10-28T22:18:16.933Z,24.80
2023-10-28T22:20:46.063Z,25.70
2023-10-28T22:23:13.412Z,25.60
2023-10-28T22:25:41.316Z,25.40
2023-10-28T22:28:15.285Z,25.50
2023-10-28T22:30:46.428Z,25.70
2023-10-28T22:33:14.388Z,25.30
2023-10-28T22:35:43.068Z,25.80
2023-10-28T22:38:13.420Z,25.60
2023-10-28T22:40:43.419Z,25.40
2023-10-28T22:43:11.458Z,26.00
2023-10-28T22:45:38.773Z,26.00
2023-10-28T22:48:06.733Z,25.50
2023-10-28T22:50:34.012Z,25.20
2023-10-28T22:53:01.240Z,25.10
2023-10-28T22:55:28.580Z,25.10
2023-10-28T22:57:56.956Z,25.50
2023-10-28T23:00:28.236Z,25.80
2023-10-28T23:02:55.566Z,25.50
2023-10-28T23:05:23.051Z,25.50
2023-10-28T23:07:51.752Z,25.60
2023-10-28T23:10:19.273Z,26.10
2023-10-28T23:12:46.327Z,26.50
2023-10-28T23:15:13.415Z,26.00
2023-10-28T23:17:40.549Z,26.20
2023-10-28T23:20:08.006Z,26.20
2023-10-28T23:22:34.926Z,25.90
2023-10-28T23:25:05.488Z,25.70
2023-10-28T23:27:32.635Z,25.90
2023-10-28T23:29:59.679Z,25.80
2023-10-28T23:32:26.825Z,25.90
2023-10-28T23:34:53.835Z,25.60
2023-10-28T23:37:20.768Z,25.20
2023-10-28T23:39:47.783Z,25.30
2023-10-28T23:42:14.908Z,25.20
2023-10-28T23:44:42.001Z,25.40
2023-10-28T23:47:09.089Z,25.70
2023-10-28T23:49:36.014Z,25.40
2023-10-28T23:52:03.104Z,25.60
2023-10-28T23:54:31.428Z,25.30
2023-10-28T23:56:58.442Z,25.30
2023-10-28T23:59:25.420Z,25.40
